createdAt,value
2023-04-19T00:00:38.299Z,11.02
2023-04-19T00:05:51.980Z,10.98
2023-04-19T00:06:52.157Z,10.99
2023-04-19T00:07:51.855Z,10.93
2023-04-19T00:08:51.737Z,10.95
2023-04-19T00:09:51.656Z,10.98
2023-04-19T00:10:51.582Z,10.95
2023-04-19T00:11:51.493Z,10.95
2023-04-19T00:12:51.610Z,10.98
2023-04-19T00:13:51.330Z,10.95
2023-04-19T00:14:51.259Z,10.95
2023-04-19T00:15:51.169Z,10.93
2023-04-19T00:16:51.152Z,10.93
2023-04-19T00:17:51.019Z,10.96
2023-04-19T00:18:50.938Z,10.96
2023-04-19T00:19:50.837Z,10.85
2023-04-19T00:20:50.759Z,10.92
2023-04-19T00:21:50.677Z,10.81
2023-04-19T00:22:50.845Z,10.93
2023-04-19T00:23:50.533Z,10.92
2023-04-19T00:24:50.433Z,10.87
2023-04-19T00:25:50.351Z,10.92
2023-04-19T00:26:50.320Z,10.91
2023-04-19T00:27:50.188Z,10.93
2023-04-19T00:28:50.107Z,10.80
2023-04-19T00:29:50.026Z,10.92
2023-04-19T00:30:49.960Z,10.85
2023-04-19T00:31:49.858Z,10.88
2023-04-19T00:32:49.814Z,10.93
2023-04-19T00:33:49.698Z,10.91
2023-04-19T00:34:49.613Z,10.92
2023-04-19T00:35:49.532Z,10.91
2023-04-19T00:36:49.452Z,10.95
2023-04-19T00:37:49.368Z,10.91
2023-04-19T00:38:49.292Z,10.81
2023-04-19T00:39:49.273Z,10.81
2023-04-19T00:40:49.124Z,10.84
2023-04-19T00:41:49.044Z,10.81
2023-04-19T00:42:48.961Z,10.85
2023-04-19T00:43:48.881Z,10.93
2023-04-19T00:44:48.823Z,10.77
2023-04-19T00:45:48.773Z,10.87
2023-04-19T00:46:48.641Z,10.85
2023-04-19T00:47:48.582Z,10.74
2023-04-19T00:48:48.470Z,10.77
2023-04-19T00:49:48.412Z,10.84
2023-04-19T00:50:48.315Z,10.78
2023-04-19T00:51:48.231Z,10.71
2023-04-19T00:52:48.555Z,10.80
2023-04-19T00:53:50.683Z,10.81
2023-04-19T04:11:32.078Z,9.60
2023-04-19T04:12:31.980Z,9.64
2023-04-19T04:13:31.894Z,9.55
2023-04-19T04:14:31.824Z,9.56
2023-04-19T04:15:31.733Z,9.42
2023-04-19T04:16:31.773Z,9.40
2023-04-19T04:17:31.760Z,9.43
2023-04-19T04:18:31.489Z,9.40
2023-04-19T04:19:31.403Z,9.40
2023-04-19T04:20:31.323Z,9.32
2023-04-19T04:21:31.236Z,9.27
2023-04-19T04:22:31.195Z,9.24
2023-04-19T04:23:31.074Z,9.14
2023-04-19T04:24:30.990Z,9.09
2023-04-19T04:25:30.911Z,9.05
2023-04-19T04:26:30.839Z,9.02
2023-04-19T04:27:30.978Z,9.06
2023-04-19T04:28:30.674Z,9.03
2023-04-19T04:29:30.588Z,9.05
2023-04-19T04:30:30.510Z,9.03
2023-04-19T04:31:30.637Z,9.00
2023-04-19T04:32:30.394Z,9.03
2023-04-19T04:33:30.266Z,9.09
2023-04-19T04:34:30.585Z,9.03
2023-04-19T04:35:30.146Z,8.97
2023-04-19T04:36:30.115Z,8.95
2023-04-19T04:37:29.942Z,8.93
2023-04-19T04:38:29.866Z,8.91
2023-04-19T04:39:29.779Z,9.00
2023-04-19T04:40:29.696Z,8.98
2023-04-19T04:41:29.618Z,8.98
2023-04-19T04:42:29.584Z,9.05
2023-04-19T04:43:29.672Z,8.95
2023-04-19T04:44:29.465Z,9.02
2023-04-19T04:45:29.396Z,9.05
2023-04-19T04:46:29.205Z,9.13
2023-04-19T04:47:29.957Z,9.16
2023-04-19T04:48:29.038Z,9.16
2023-04-19T04:49:28.982Z,9.17
2023-04-19T04:50:28.878Z,9.14
2023-04-19T04:51:28.807Z,9.09
2023-04-19T04:52:28.709Z,9.19
2023-04-19T04:53:28.631Z,9.20
2023-04-19T04:54:28.551Z,9.16
2023-04-19T04:55:28.464Z,9.24
2023-04-19T04:56:28.411Z,9.20
2023-04-19T04:57:28.299Z,9.22
2023-04-19T04:58:28.224Z,9.24
2023-04-19T04:59:28.154Z,9.24
2023-04-19T05:00:28.076Z,9.22
2023-04-19T05:01:28.015Z,9.27
2023-04-19T05:02:27.993Z,9.24
2023-04-19T05:03:27.854Z,9.27
2023-04-19T05:04:27.823Z,9.34
2023-04-19T05:05:27.653Z,9.38
2023-04-19T05:06:27.554Z,9.45
2023-04-19T05:07:27.474Z,9.43
2023-04-19T05:08:27.390Z,9.38
2023-04-19T05:09:27.308Z,9.43
2023-04-19T05:10:27.233Z,9.47
2023-04-19T05:11:27.144Z,9.58
2023-04-19T05:12:27.476Z,9.58
2023-04-19T05:13:27.286Z,9.55
2023-04-19T05:14:26.899Z,9.68
2023-04-19T05:15:26.835Z,9.75
2023-04-19T05:16:26.772Z,9.74
2023-04-19T05:17:26.691Z,9.70
2023-04-19T05:18:26.571Z,9.75
2023-04-19T05:19:26.497Z,9.83
2023-04-19T05:20:26.406Z,9.78
2023-04-19T05:21:26.323Z,9.83
2023-04-19T05:22:26.247Z,9.80
2023-04-19T05:23:26.178Z,9.82
2023-04-19T05:24:26.528Z,9.85
2023-04-19T05:25:26.018Z,9.92
2023-04-19T05:39:10.460Z,10.15
2023-04-19T05:40:10.420Z,10.08
2023-04-19T05:41:10.274Z,10.08
2023-04-19T05:42:10.192Z,10.06
2023-04-19T05:43:10.113Z,10.03
2023-04-19T05:44:10.042Z,10.11
2023-04-19T05:45:09.951Z,10.13
2023-04-19T05:46:09.941Z,10.21
2023-04-19T05:47:09.801Z,10.22
2023-04-19T05:48:09.755Z,10.23
2023-04-19T05:49:09.633Z,10.26
2023-04-19T05:50:09.545Z,10.28
2023-04-19T05:51:09.500Z,10.26
2023-04-19T05:52:09.390Z,10.34
2023-04-19T05:53:09.300Z,10.47
2023-04-19T05:54:09.220Z,10.55
2023-04-19T05:55:09.169Z,10.55
2023-04-19T05:56:09.057Z,10.66
2023-04-19T05:57:08.971Z,10.65
2023-04-19T05:58:08.917Z,10.66
2023-04-19T05:59:08.819Z,10.77
2023-04-19T06:00:08.743Z,10.78
2023-04-19T06:01:08.682Z,10.71
2023-04-19T06:02:08.757Z,10.71
2023-04-19T06:03:08.777Z,10.65
2023-04-19T06:04:08.537Z,10.69
2023-04-19T06:05:10.203Z,10.75
2023-04-19T06:06:08.339Z,10.78
2023-04-19T06:07:17.480Z,10.69
2023-04-19T06:08:08.096Z,10.75
2023-04-19T06:09:08.010Z,10.65
2023-04-19T06:10:07.940Z,10.71
2023-04-19T06:11:15.849Z,10.66
2023-04-19T06:12:07.765Z,10.71
2023-04-19T06:13:07.675Z,10.75
2023-04-19T06:14:07.596Z,10.77
2023-04-19T06:15:07.521Z,10.87
2023-04-19T06:16:07.470Z,10.83
2023-04-19T06:17:07.354Z,10.96
2023-04-19T06:18:07.334Z,10.93
2023-04-19T06:19:07.190Z,10.95
2023-04-19T06:20:07.116Z,10.95
2023-04-19T06:21:07.032Z,10.93
2023-04-19T06:22:06.947Z,11.03
2023-04-19T06:23:06.868Z,11.03
2023-04-19T06:24:06.792Z,11.02
2023-04-19T06:25:06.907Z,11.05
2023-04-19T06:26:06.637Z,11.03
2023-04-19T06:27:06.585Z,10.99
2023-04-19T06:28:06.481Z,11.05
2023-04-19T06:29:06.693Z,11.00
2023-04-19T06:30:06.325Z,10.95
2023-04-19T06:31:06.248Z,10.93
2023-04-19T06:32:06.145Z,11.00
2023-04-19T06:33:06.065Z,11.00
2023-04-19T06:34:05.984Z,10.95
2023-04-19T06:35:05.904Z,11.02
2023-04-19T06:36:05.828Z,11.06
2023-04-19T06:37:05.742Z,11.05
2023-04-19T06:38:05.665Z,11.17
2023-04-19T06:39:05.589Z,11.23
2023-04-19T06:40:05.504Z,11.20
2023-04-19T06:41:05.427Z,11.32
2023-04-19T06:42:05.347Z,11.38
2023-04-19T06:43:05.893Z,11.43
2023-04-19T06:44:05.180Z,11.59
2023-04-19T06:45:05.300Z,11.64
2023-04-19T06:46:05.088Z,11.76
2023-04-19T06:47:04.950Z,11.76
2023-04-19T06:48:04.891Z,11.87
2023-04-19T06:49:04.829Z,11.69
2023-04-19T06:50:04.948Z,11.72
2023-04-19T06:51:04.619Z,11.61
2023-04-19T06:52:04.557Z,11.68
2023-04-19T06:53:04.997Z,11.69
2023-04-19T06:54:04.381Z,11.67
2023-04-19T06:55:04.300Z,11.72
2023-04-19T06:56:04.253Z,11.60
2023-04-19T06:57:04.141Z,11.69
2023-04-19T06:58:04.414Z,11.72
2023-04-19T06:59:04.002Z,11.69
2023-04-19T07:00:03.900Z,11.81
2023-04-19T07:01:03.845Z,11.89
2023-04-19T07:02:03.943Z,11.90
2023-04-19T07:03:03.776Z,11.93
2023-04-19T07:04:04.011Z,11.95
2023-04-19T07:05:03.501Z,11.87
2023-04-19T07:06:03.424Z,11.83
2023-04-19T07:07:03.340Z,11.89
2023-04-19T07:08:03.267Z,11.93
2023-04-19T07:09:03.178Z,11.87
2023-04-19T07:10:03.109Z,11.76
2023-04-19T07:11:03.031Z,11.75
2023-04-19T07:12:02.960Z,11.93
2023-04-19T07:13:03.145Z,11.79
2023-04-19T07:14:02.787Z,11.81
2023-04-19T07:15:02.880Z,11.87
2023-04-19T07:16:02.664Z,11.87
2023-04-19T07:17:02.588Z,11.90
2023-04-19T07:18:02.482Z,11.81
2023-04-19T07:19:02.405Z,11.89
2023-04-19T07:20:02.299Z,12.06
2023-04-19T07:21:02.225Z,12.21
2023-04-19T07:22:02.142Z,12.24
2023-04-19T07:23:02.067Z,12.28
2023-04-19T07:24:02.007Z,12.15
2023-04-19T07:25:01.908Z,12.15
2023-04-19T07:26:01.820Z,12.19
2023-04-19T07:27:01.762Z,12.11
2023-04-19T07:28:01.669Z,12.15
2023-04-19T07:29:01.748Z,12.24
2023-04-19T07:30:01.566Z,12.37
2023-04-19T07:31:01.477Z,12.36
2023-04-19T07:32:01.391Z,12.36
2023-04-19T07:33:01.290Z,12.34
2023-04-19T07:34:01.182Z,12.26
2023-04-19T07:35:01.102Z,12.31
2023-04-19T07:36:01.302Z,12.51
2023-04-19T07:37:00.946Z,12.45
2023-04-19T07:38:01.205Z,12.49
2023-04-19T07:39:00.782Z,12.55
2023-04-19T07:40:00.707Z,12.55
2023-04-19T07:41:00.636Z,12.56
2023-04-19T07:42:00.694Z,12.60
2023-04-19T07:43:00.472Z,12.59
2023-04-19T07:44:00.388Z,12.51
2023-04-19T07:45:00.307Z,12.44
2023-04-19T07:46:00.316Z,12.41
2023-04-19T07:47:00.273Z,12.39
2023-04-19T07:48:00.095Z,12.41
2023-04-19T07:49:00.473Z,12.41
2023-04-19T07:49:59.911Z,12.36
2023-04-19T07:50:59.825Z,12.39
2023-04-19T07:51:59.753Z,12.37
2023-04-19T07:52:59.676Z,12.44
2023-04-19T07:53:59.588Z,12.51
2023-04-19T07:54:59.513Z,12.56
2023-04-19T07:55:59.428Z,12.63
2023-04-19T07:56:59.556Z,12.55
2023-04-19T07:57:59.273Z,12.51
2023-04-19T07:59:07.387Z,12.45
2023-04-19T07:59:59.108Z,12.42
2023-04-19T08:00:59.143Z,12.51
2023-04-19T08:01:59.431Z,12.52
2023-04-19T08:02:59.137Z,12.59
2023-04-19T08:03:59.088Z,12.53
2023-04-19T08:04:58.776Z,12.46
2023-04-19T08:05:58.681Z,12.59
2023-04-19T08:06:58.555Z,12.56
2023-04-19T08:07:58.475Z,12.55
2023-04-19T08:08:58.399Z,12.63
2023-04-19T08:09:58.534Z,12.70
2023-04-19T08:11:58.154Z,12.74
2023-04-19T08:13:05.941Z,12.77
2023-04-19T08:14:06.817Z,12.74
2023-04-19T08:15:06.603Z,12.79
2023-04-19T08:17:22.011Z,12.77
2023-04-19T08:17:57.756Z,12.66
2023-04-19T08:18:57.671Z,12.56
2023-04-19T08:19:57.524Z,12.66
2023-04-19T08:20:57.647Z,12.61
2023-04-19T08:21:57.373Z,12.74
2023-04-19T08:22:59.061Z,12.77
2023-04-19T08:23:57.215Z,12.67
2023-04-19T08:24:57.134Z,12.73
2023-04-19T08:25:57.142Z,12.77
2023-04-19T08:26:59.882Z,12.77
2023-04-19T08:27:56.891Z,12.86
2023-04-19T08:28:56.812Z,12.88
2023-04-19T08:29:56.745Z,12.97
2023-04-19T08:30:56.653Z,13.02
2023-04-19T08:31:56.631Z,13.04
2023-04-19T08:32:57.307Z,12.99
2023-04-19T08:33:56.619Z,12.63
2023-04-19T08:40:48.298Z,12.67
2023-04-19T08:41:55.930Z,12.69
2023-04-19T08:42:48.131Z,12.63
2023-04-19T08:43:48.052Z,12.64
2023-04-19T08:45:06.290Z,12.71
2023-04-19T08:45:47.942Z,12.69
2023-04-19T08:46:47.809Z,12.56
2023-04-19T08:47:59.723Z,12.55
2023-04-19T08:48:47.682Z,12.55
2023-04-19T08:49:49.241Z,12.56
2023-04-19T08:51:01.181Z,12.67
2023-04-19T08:51:47.410Z,12.67
2023-04-19T08:52:55.011Z,12.71
2023-04-19T08:53:47.251Z,12.78
2023-04-19T08:54:47.175Z,12.81
2023-04-19T08:56:03.394Z,12.82
2023-04-19T08:56:47.042Z,12.86
2023-04-19T08:57:47.184Z,12.71
2023-04-19T08:59:46.814Z,12.63
2023-04-19T09:00:46.778Z,12.61
2023-04-19T09:01:46.634Z,12.36
2023-04-19T09:02:47.786Z,12.44
2023-04-19T09:04:00.381Z,12.49
2023-04-19T09:04:46.694Z,12.45
2023-04-19T09:05:46.567Z,12.41
2023-04-19T09:06:46.219Z,12.31
2023-04-19T09:07:46.143Z,12.30
2023-04-19T09:08:46.060Z,12.41
2023-04-19T09:10:00.070Z,12.36
2023-04-19T09:10:45.917Z,12.31
2023-04-19T09:11:46.173Z,12.27
2023-04-19T09:12:45.762Z,12.28
2023-04-19T09:13:45.707Z,12.23
2023-04-19T09:14:59.922Z,12.16
2023-04-19T09:15:45.511Z,12.27
2023-04-19T09:16:45.460Z,12.24
2023-04-19T09:17:45.474Z,12.18
2023-04-19T09:18:56.218Z,12.11
2023-04-19T09:19:45.186Z,12.24
2023-04-19T09:20:45.183Z,12.27
2023-04-19T09:21:45.027Z,12.30
2023-04-19T09:22:44.951Z,12.39
2023-04-19T09:23:44.867Z,12.44
2023-04-19T09:26:11.273Z,12.48
2023-04-19T09:26:44.631Z,12.44
2023-04-19T09:27:44.549Z,12.63
2023-04-19T09:28:44.488Z,12.61
2023-04-19T09:29:44.393Z,12.70
2023-04-19T09:30:58.102Z,12.71
2023-04-19T09:31:51.536Z,12.64
2023-04-19T09:32:44.324Z,12.70
2023-04-19T09:33:44.101Z,12.71
2023-04-19T09:34:43.991Z,12.81
2023-04-19T09:35:43.956Z,12.94
2023-04-19T09:36:43.832Z,13.03
2023-04-19T09:39:26.256Z,13.10
2023-04-19T09:40:26.175Z,13.04
2023-04-19T09:41:26.300Z,13.00
2023-04-19T09:42:47.162Z,13.07
2023-04-19T09:43:58.017Z,13.09
2023-04-19T09:45:30.050Z,13.15
2023-04-19T09:46:25.780Z,13.41
2023-04-19T09:47:25.675Z,13.63
2023-04-19T09:48:28.170Z,13.81
2023-04-19T09:49:37.730Z,14.03
2023-04-19T09:50:27.641Z,13.81
2023-04-19T09:51:25.348Z,13.94
2023-04-19T09:52:25.251Z,13.86
2023-04-19T09:53:25.163Z,13.71
2023-04-19T09:54:25.075Z,13.84
2023-04-19T09:55:28.484Z,13.95
2023-04-19T09:56:24.937Z,14.05
2023-04-19T09:57:24.841Z,14.29
2023-04-19T09:58:29.323Z,14.28
2023-04-19T09:59:24.808Z,14.05
2023-04-19T10:00:24.784Z,14.21
2023-04-19T10:01:25.951Z,14.38
2023-04-19T10:02:24.703Z,14.39
2023-04-19T10:03:24.431Z,14.36
2023-04-19T10:04:36.314Z,14.59
2023-04-19T10:05:24.582Z,14.42
2023-04-19T10:07:30.317Z,14.47
2023-04-19T10:08:24.005Z,14.36
2023-04-19T10:09:23.919Z,14.10
2023-04-19T10:10:30.151Z,14.24
2023-04-19T10:11:23.786Z,14.31
2023-04-19T10:14:49.325Z,14.75
2023-04-19T10:16:52.208Z,14.69
2023-04-19T10:17:52.116Z,14.69
2023-04-19T10:18:51.769Z,14.85
2023-04-19T10:19:51.693Z,14.71
2023-04-19T10:20:51.663Z,14.71
2023-04-19T10:21:51.638Z,14.75
2023-04-19T10:22:51.498Z,14.84
2023-04-19T10:23:51.387Z,14.85
2023-04-19T10:24:51.308Z,14.88
2023-04-19T10:25:51.235Z,14.95
2023-04-19T10:26:51.155Z,15.06
2023-04-19T10:27:51.081Z,15.10
2023-04-19T10:28:51.004Z,14.98
2023-04-19T10:29:50.923Z,15.30
2023-04-19T10:30:50.858Z,15.41
2023-04-19T10:31:50.785Z,15.48
2023-04-19T10:32:51.324Z,15.42
2023-04-19T10:33:50.624Z,15.26
2023-04-19T10:34:50.542Z,15.01
2023-04-19T10:35:50.467Z,15.01
2023-04-19T10:36:50.393Z,15.06
2023-04-19T11:11:57.863Z,15.88
2023-04-19T11:12:57.765Z,15.51
2023-04-19T11:13:57.685Z,15.12
2023-04-19T11:14:57.852Z,15.21
2023-04-19T11:15:57.769Z,15.38
2023-04-19T11:16:57.613Z,15.49
2023-04-19T11:18:11.260Z,15.64
2023-04-19T11:18:57.312Z,15.81
2023-04-19T11:19:57.276Z,15.86
2023-04-19T11:20:57.359Z,15.76
2023-04-19T11:21:57.079Z,15.82
2023-04-19T11:22:57.002Z,15.86
2023-04-19T11:23:56.928Z,16.22
2023-04-19T11:24:56.857Z,16.45
2023-04-19T11:25:56.773Z,16.60
2023-04-19T11:26:56.696Z,16.34
2023-04-19T11:27:56.644Z,15.99
2023-04-19T11:28:56.549Z,15.83
2023-04-19T11:29:56.473Z,15.82
2023-04-19T11:30:56.483Z,15.85
2023-04-19T11:31:56.321Z,15.86
2023-04-19T11:32:56.477Z,15.67
2023-04-19T11:33:56.178Z,15.57
2023-04-19T11:34:56.109Z,15.38
2023-04-19T11:35:56.026Z,15.38
2023-04-19T11:36:55.999Z,15.68
2023-04-19T11:37:56.536Z,15.94
2023-04-19T11:38:55.798Z,16.27
2023-04-19T11:39:55.716Z,16.71
2023-04-19T11:40:56.145Z,16.66
2023-04-19T11:41:55.566Z,17.03
2023-04-19T11:42:55.519Z,17.46
2023-04-19T11:43:55.570Z,17.57
2023-04-19T11:44:55.360Z,17.21
2023-04-19T11:45:55.325Z,16.42
2023-04-19T11:46:55.262Z,15.99
2023-04-19T11:47:55.435Z,15.73
2023-04-19T11:48:55.054Z,16.22
2023-04-19T11:49:54.977Z,16.15
2023-04-19T11:50:54.923Z,16.10
2023-04-19T11:51:54.827Z,16.27
2023-04-19T11:52:54.759Z,16.27
2023-04-19T11:53:54.690Z,16.00
2023-04-19T11:54:54.615Z,15.68
2023-04-19T11:55:54.588Z,15.61
2023-04-19T11:56:54.461Z,15.64
2023-04-19T11:57:54.400Z,15.67
2023-04-19T11:58:54.316Z,15.59
2023-04-19T11:59:54.269Z,15.48
2023-04-19T12:00:54.180Z,16.03
2023-04-19T12:01:54.112Z,17.25
2023-04-19T12:02:54.127Z,18.10
2023-04-19T12:03:54.144Z,17.89
2023-04-19T12:04:54.063Z,17.30
2023-04-19T12:05:53.860Z,17.13
2023-04-19T12:06:53.713Z,16.77
2023-04-19T12:07:53.634Z,16.33
2023-04-19T12:08:53.567Z,16.12
2023-04-19T12:09:53.489Z,16.08
2023-04-19T12:10:53.420Z,16.14
2023-04-19T12:11:53.355Z,16.10
2023-04-19T12:12:53.280Z,16.10
2023-04-19T12:13:53.200Z,15.99
2023-04-19T12:14:53.127Z,17.11
2023-04-19T12:15:53.407Z,17.92
2023-04-19T12:16:53.040Z,18.69
2023-04-19T12:17:57.486Z,18.32
2023-04-19T12:18:52.828Z,17.36
2023-04-19T12:19:52.748Z,17.44
2023-04-19T12:20:52.679Z,17.30
2023-04-19T12:21:52.602Z,17.10
2023-04-19T12:22:53.229Z,17.69
2023-04-19T12:23:52.462Z,18.18
2023-04-19T12:24:52.385Z,17.98
2023-04-19T12:25:52.311Z,17.98
2023-04-19T12:26:54.562Z,18.02
2023-04-19T12:27:53.583Z,17.92
2023-04-19T12:28:52.109Z,18.86
2023-04-19T12:29:52.032Z,19.58
2023-04-19T12:30:51.952Z,19.80
2023-04-19T12:31:51.964Z,20.06
2023-04-19T12:32:51.864Z,20.33
2023-04-19T12:34:51.671Z,21.14
2023-04-19T12:35:51.750Z,21.54
2023-04-19T12:36:51.534Z,21.86
2023-04-19T12:37:51.483Z,21.20
2023-04-19T12:38:51.392Z,19.68
2023-04-19T12:39:51.327Z,18.97
2023-04-19T12:40:51.268Z,18.64
2023-04-19T12:41:51.190Z,19.08
2023-04-19T12:42:51.122Z,19.36
2023-04-19T12:43:51.054Z,19.36
2023-04-19T12:44:51.184Z,18.89
2023-04-19T12:45:51.181Z,18.47
2023-04-19T12:46:50.850Z,17.77
2023-04-19T12:47:51.059Z,17.43
2023-04-19T12:48:50.768Z,17.70
2023-04-19T12:49:50.641Z,17.71
2023-04-19T12:50:50.573Z,17.98
2023-04-19T12:51:50.500Z,18.62
2023-04-19T12:52:50.433Z,19.25
2023-04-19T12:53:50.720Z,19.06
2023-04-19T12:54:50.291Z,18.82
2023-04-19T12:55:50.224Z,18.73
2023-04-19T12:56:50.158Z,18.68
2023-04-19T12:57:50.085Z,18.44
2023-04-19T12:58:50.026Z,18.39
2023-04-19T12:59:49.950Z,18.82
2023-04-19T13:00:49.879Z,19.38
2023-04-19T13:01:49.986Z,19.97
2023-04-19T13:02:49.986Z,20.24
2023-04-19T13:03:50.251Z,20.34
2023-04-19T13:04:49.700Z,20.64
2023-04-19T13:05:49.838Z,20.53
2023-04-19T13:06:49.474Z,19.06
2023-04-19T13:08:46.168Z,18.86
2023-04-19T13:09:42.225Z,19.53
2023-04-19T13:10:41.756Z,19.15
2023-04-19T13:11:41.697Z,18.92
2023-04-19T13:12:41.624Z,19.23
2023-04-19T13:13:41.568Z,18.84
2023-04-19T13:14:41.843Z,19.38
2023-04-19T13:15:41.454Z,19.33
2023-04-19T13:16:41.351Z,19.36
2023-04-19T13:17:41.608Z,19.09
2023-04-19T13:18:41.217Z,18.43
2023-04-19T13:19:41.240Z,17.96
2023-04-19T13:20:41.381Z,17.57
2023-04-19T13:21:41.016Z,17.20
2023-04-19T13:22:40.948Z,17.07
2023-04-19T13:23:40.875Z,17.08
2023-04-19T13:24:40.812Z,17.02
2023-04-19T13:25:40.746Z,17.05
2023-04-19T13:26:40.736Z,17.76
2023-04-19T13:27:40.595Z,17.70
2023-04-19T13:28:40.522Z,17.67
2023-04-19T13:29:40.454Z,18.06
2023-04-19T13:30:40.382Z,19.36
2023-04-19T13:31:40.362Z,20.31
2023-04-19T13:32:40.327Z,20.79
2023-04-19T13:33:40.174Z,21.30
2023-04-19T13:34:40.210Z,20.65
2023-04-19T13:35:40.077Z,19.68
2023-04-19T13:36:39.960Z,18.99
2023-04-19T13:37:39.896Z,19.06
2023-04-19T13:38:39.821Z,19.48
2023-04-19T13:39:39.765Z,19.61
2023-04-19T13:40:39.688Z,19.11
2023-04-19T13:41:39.618Z,18.32
2023-04-19T13:42:39.596Z,17.96
2023-04-19T13:43:39.479Z,18.28
2023-04-19T13:44:39.425Z,18.94
2023-04-19T13:45:39.342Z,19.63
2023-04-19T13:46:39.320Z,20.35
2023-04-19T13:47:39.232Z,20.06
2023-04-19T13:48:39.138Z,19.11
2023-04-19T13:49:39.067Z,18.98
2023-04-19T13:50:38.998Z,18.11
2023-04-19T13:51:49.429Z,17.48
2023-04-19T13:52:38.856Z,17.21
2023-04-19T13:53:38.790Z,17.18
2023-04-19T13:54:38.718Z,17.73
2023-04-19T13:55:38.652Z,17.10
2023-04-19T13:56:38.598Z,17.10
2023-04-19T13:57:38.524Z,17.15
2023-04-19T13:58:38.637Z,17.13
2023-04-19T13:59:38.368Z,17.11
2023-04-19T14:00:38.321Z,16.95
2023-04-19T14:01:38.227Z,16.57
2023-04-19T14:02:38.437Z,16.95
2023-04-19T14:03:38.226Z,17.51
2023-04-19T14:04:38.059Z,17.67
2023-04-19T14:05:41.823Z,17.33
2023-04-19T14:06:37.866Z,16.99
2023-04-19T14:33:13.812Z,17.69
2023-04-19T14:34:13.652Z,17.95
2023-04-19T14:35:13.584Z,17.85
2023-04-19T14:36:13.511Z,17.92
2023-04-19T14:37:13.435Z,17.69
2023-04-19T14:38:13.362Z,17.28
2023-04-19T14:39:13.299Z,16.84
2023-04-19T14:40:13.241Z,16.73
2023-04-19T14:41:13.146Z,16.45
2023-04-19T14:42:13.085Z,16.47
2023-04-19T14:43:13.001Z,16.48
2023-04-19T14:44:12.925Z,16.29
2023-04-19T14:45:12.855Z,16.26
2023-04-19T14:46:12.845Z,15.91
2023-04-19T14:47:12.700Z,16.06
2023-04-19T14:48:12.689Z,16.16
2023-04-19T14:49:12.583Z,16.27
2023-04-19T14:50:12.487Z,16.62
2023-04-19T14:51:12.413Z,17.25
2023-04-19T14:52:12.350Z,17.89
2023-04-19T14:53:12.526Z,18.44
2023-04-19T14:54:12.188Z,18.55
2023-04-19T14:55:12.115Z,18.92
2023-04-19T14:56:12.048Z,18.90
2023-04-19T14:57:12.022Z,19.28
2023-04-19T14:58:11.898Z,19.24
2023-04-19T14:59:11.820Z,19.24
2023-04-19T15:00:11.803Z,19.24
2023-04-19T15:01:11.715Z,19.54
2023-04-19T15:02:11.675Z,19.78
2023-04-19T15:03:11.709Z,19.97
2023-04-19T15:04:11.639Z,20.40
2023-04-19T15:08:32.528Z,19.46
2023-04-19T15:09:32.023Z,19.24
2023-04-19T15:10:31.981Z,19.20
2023-04-19T15:11:34.504Z,18.92
2023-04-19T15:12:31.823Z,18.97
2023-04-19T15:13:31.982Z,19.23
2023-04-19T15:14:31.712Z,19.50
2023-04-19T15:15:31.972Z,19.71
2023-04-19T15:16:31.694Z,20.15
2023-04-19T15:17:31.515Z,20.13
2023-04-19T15:19:31.340Z,20.50
2023-04-19T15:20:31.266Z,20.46
2023-04-19T15:21:31.389Z,20.19
2023-04-19T15:22:31.125Z,20.10
2023-04-19T15:23:31.056Z,20.16
2023-04-19T15:24:31.653Z,20.03
2023-04-19T15:25:30.917Z,19.98
2023-04-19T15:26:33.482Z,19.68
2023-04-19T15:27:30.778Z,19.76
2023-04-19T15:28:30.714Z,19.78
2023-04-19T15:29:30.744Z,19.68
2023-04-19T15:30:30.660Z,19.71
2023-04-19T15:31:30.539Z,19.97
2023-04-19T15:32:30.494Z,20.08
2023-04-19T15:34:37.878Z,19.55
2023-04-19T15:35:37.814Z,19.71
2023-04-19T15:39:33.468Z,19.53
2023-04-19T15:40:33.709Z,19.28
2023-04-19T15:41:33.291Z,19.08
2023-04-19T15:42:33.232Z,18.22
2023-04-19T15:43:33.150Z,18.50
2023-04-19T15:44:33.088Z,18.90
2023-04-19T15:45:33.025Z,18.71
2023-04-19T15:46:33.018Z,19.06
2023-04-19T15:47:32.923Z,19.24
2023-04-19T15:48:32.818Z,18.64
2023-04-19T15:49:32.743Z,18.77
2023-04-19T15:50:32.664Z,18.82
2023-04-19T15:51:32.608Z,18.84
2023-04-19T15:52:32.537Z,18.87
2023-04-19T15:53:32.458Z,18.68
2023-04-19T15:54:32.389Z,18.50
2023-04-19T15:55:32.352Z,18.87
2023-04-19T15:56:32.251Z,18.89
2023-04-19T15:57:32.178Z,19.36
2023-04-19T15:58:32.108Z,19.24
2023-04-19T15:59:32.048Z,18.92
2023-04-19T16:00:31.993Z,19.13
2023-04-19T16:01:31.933Z,18.95
2023-04-19T16:02:32.125Z,18.99
2023-04-19T16:03:31.863Z,19.25
2023-04-19T16:04:31.753Z,19.09
2023-04-19T16:05:31.623Z,19.18
2023-04-19T16:06:31.551Z,19.65
2023-04-19T16:07:31.879Z,19.76
2023-04-19T16:08:31.463Z,19.54
2023-04-19T16:09:31.340Z,19.46
2023-04-19T16:10:31.269Z,19.27
2023-04-19T16:11:31.267Z,18.94
2023-04-19T16:12:31.135Z,18.97
2023-04-19T16:13:31.628Z,18.94
2023-04-19T16:14:31.094Z,18.59
2023-04-19T16:15:30.918Z,18.40
2023-04-19T16:16:30.994Z,18.40
2023-04-19T16:17:30.888Z,18.46
2023-04-19T16:18:30.761Z,18.50
2023-04-19T16:19:30.645Z,18.49
2023-04-19T16:20:30.600Z,18.61
2023-04-19T16:21:30.522Z,18.84
2023-04-19T16:22:30.704Z,18.67
2023-04-19T16:23:30.380Z,17.77
2023-04-19T16:24:30.289Z,17.60
2023-04-19T16:25:30.239Z,17.60
2023-04-19T16:26:30.175Z,17.25
2023-04-19T16:27:30.243Z,16.96
2023-04-19T16:28:30.027Z,16.60
2023-04-19T16:29:29.934Z,16.23
2023-04-19T16:30:29.882Z,16.20
2023-04-19T16:31:29.855Z,16.23
2023-04-19T16:32:29.869Z,16.01
2023-04-19T16:33:29.666Z,15.67
2023-04-19T16:34:29.815Z,15.55
2023-04-19T16:35:29.518Z,15.28
2023-04-19T16:36:29.580Z,15.09
2023-04-19T16:37:29.467Z,14.78
2023-04-19T16:38:29.893Z,14.59
2023-04-19T16:39:29.225Z,14.72
2023-04-19T16:40:29.222Z,14.71
2023-04-19T16:41:29.130Z,14.72
2023-04-19T16:47:07.833Z,14.59
2023-04-19T16:48:07.793Z,14.72
2023-04-19T16:49:07.663Z,14.65
2023-04-19T16:50:07.591Z,14.59
2023-04-19T16:51:07.514Z,14.61
2023-04-19T16:52:07.434Z,14.57
2023-04-19T16:53:55.252Z,14.59
2023-04-19T16:54:55.209Z,14.49
2023-04-19T16:55:56.469Z,14.57
2023-04-19T16:56:55.014Z,14.36
2023-04-19T17:34:48.698Z,13.38
2023-04-19T17:35:48.597Z,13.21
2023-04-19T17:36:48.517Z,13.04
2023-04-19T17:37:48.439Z,13.07
2023-04-19T17:38:48.360Z,13.09
2023-04-19T17:39:48.281Z,13.09
2023-04-19T17:40:48.196Z,13.09
2023-04-19T17:41:48.128Z,13.15
2023-04-19T17:42:48.291Z,13.09
2023-04-19T17:43:47.979Z,13.06
2023-04-19T17:44:47.880Z,13.07
2023-04-19T17:45:47.799Z,13.09
2023-04-19T17:46:47.800Z,13.04
2023-04-19T17:47:47.679Z,13.06
2023-04-19T17:48:47.561Z,13.03
2023-04-19T17:49:47.481Z,12.94
2023-04-19T17:50:47.414Z,12.96
2023-04-19T17:51:47.327Z,12.99
2023-04-19T17:52:47.244Z,13.04
2023-04-19T17:53:47.181Z,13.06
2023-04-19T17:54:47.084Z,12.99
2023-04-19T17:55:47.010Z,12.78
2023-04-19T17:56:46.920Z,12.78
2023-04-19T17:57:46.844Z,12.71
2023-04-19T17:58:46.774Z,12.70
2023-04-19T17:59:46.686Z,12.64
2023-04-19T18:00:46.605Z,12.60
2023-04-19T18:01:46.556Z,12.51
2023-04-19T18:02:46.628Z,12.41
2023-04-19T18:03:46.567Z,12.44
2023-04-19T18:04:46.443Z,12.28
2023-04-19T18:05:46.211Z,12.39
2023-04-19T18:06:46.145Z,12.36
2023-04-19T18:07:46.048Z,12.37
2023-04-19T18:08:46.077Z,12.18
2023-04-19T18:09:45.916Z,12.26
2023-04-19T18:10:45.815Z,12.23
2023-04-19T18:11:45.730Z,12.08
2023-04-19T18:12:45.847Z,12.21
2023-04-19T18:13:45.584Z,12.19
2023-04-19T18:14:45.490Z,12.11
2023-04-19T18:15:45.412Z,12.12
2023-04-19T18:16:45.396Z,12.09
2023-04-19T18:17:45.290Z,12.15
2023-04-19T18:18:45.167Z,12.12
2023-04-19T18:19:45.089Z,11.98
2023-04-19T18:20:45.013Z,11.81
2023-04-19T18:21:44.930Z,11.69
2023-04-19T18:22:44.867Z,11.71
2023-04-19T18:23:44.776Z,11.57
2023-04-19T18:24:44.697Z,11.51
2023-04-19T18:25:44.606Z,11.49
2023-04-19T18:26:44.581Z,11.29
2023-04-19T18:27:44.446Z,11.31
2023-04-19T18:28:44.363Z,11.38
2023-04-19T18:29:44.285Z,11.35
2023-04-19T18:30:44.209Z,11.47
2023-04-19T18:31:44.161Z,11.36
2023-04-19T18:32:44.108Z,11.35
2023-04-19T18:33:43.959Z,11.43
2023-04-19T18:34:43.878Z,11.39
2023-04-19T18:35:43.802Z,11.17
2023-04-19T18:36:43.728Z,10.99
2023-04-19T18:37:43.638Z,11.02